Аэропорт: Большое Савино. Пермь

ICAO: USPP

METAR:
2019-12-12 11:30:00
USPP 121130Z 26003MPS CAVOK M06/M08 Q1022 R21/820255 NOSIG RMK QFE755
METAR:
2019-12-12 07:58:00
TAF USPP 120758Z 1209/1309 30003G14MPS 9999 BKN016 TEMPO 1209/1215 3100 -SN BKN011 BECMG 1215/1217 24003G12MPS